This is the latest recevied weather packets stored in our database for station/object W9PEM-13. If no packets are shown the sender has not sent any weather packets the latest 10 day(s).
| Time | Temp. | Humidity | Pressure | Rain* | Wind** | Luminosity | Snow |
|---|---|---|---|---|---|---|---|
| 1778071558 | 5.56° C | 66% | 982.2 hPa | 0 mm | - | 145 W/m² | - |
| 1778071085 | 4.44° C | 70% | 982 hPa | 0 mm | - | 265 W/m² | - |
| 1778070958 | 4.44° C | 70% | 982 hPa | 0 mm | - | 265 W/m² | - |
| 1778070435 | 4.44° C | 72% | 982 hPa | 0 mm | - | 94 W/m² | - |
| 1778070358 | 4.44° C | 72% | 982 hPa | 0 mm | - | 94 W/m² | - |
| 1778069835 | 3.89° C | 77% | 981.9 hPa | 0 mm | - | 83 W/m² | - |
| 1778069758 | 3.89° C | 77% | 981.9 hPa | 0 mm | - | 83 W/m² | - |
| 1778069335 | 3.33° C | 78% | 982.1 hPa | 0 mm | - | 58 W/m² | - |
| 1778069284 | 3.33° C | 78% | 982.1 hPa | 0 mm | - | 58 W/m² | - |
| 1778069158 | 3.33° C | 78% | 982.1 hPa | 0 mm | - | 58 W/m² | - |
| 1778068702 | 3.33° C | 81% | 982 hPa | 0 mm | - | 46 W/m² | - |
| 1778068558 | 3.33° C | 81% | 982 hPa | 0 mm | - | 46 W/m² | - |
| 1778068062 | 2.78° C | 86% | 982 hPa | 0 mm | - | 39 W/m² | - |
| 1778067535 | 2.22° C | 90% | 981.7 hPa | 0 mm | - | 47 W/m² | - |
| 1778067497 | 2.22° C | 90% | 981.7 hPa | 0 mm | - | 47 W/m² | - |
| 1778067358 | 2.22° C | 90% | 981.7 hPa | 0 mm | - | 47 W/m² | - |
| 1778066935 | 1.67° C | 90% | 981.7 hPa | 0 mm | - | 31 W/m² | - |
| 1778066758 | 1.67° C | 90% | 981.7 hPa | 0 mm | - | 31 W/m² | - |
| 1778065862 | 1.67° C | 91% | 981.6 hPa | 0 mm | - | 17 W/m² | - |
| 1778065749 | 1.67° C | 91% | 981.6 hPa | 0 mm | - | 17 W/m² | - |
| 1778065246 | 1.11° C | 91% | 981.5 hPa | 0 mm | - | 11 W/m² | - |
| 1778065149 | 1.11° C | 91% | 981.5 hPa | 0 mm | - | 11 W/m² | - |
| 1778064662 | 0.56° C | 90% | 981.4 hPa | 0 mm | - | 5 W/m² | - |
| 1778064549 | 0.56° C | 90% | 981.4 hPa | 0 mm | - | 5 W/m² | - |
| 1778064050 | 0.56° C | 91% | 981.4 hPa | 0 mm | - | 3 W/m² | - |
* Rain latest hour (hover to see other rain measurements)
** Current wind speed in m/s (hover to see current wind gust speed)